Time;durP1;ratioP1;P1;durP2;ratioP2;P2;SDS_P1;SDS_P2;PMS_P1;PMS_P2;Temp;Humidity;BMP_temperature;BMP_pressure;BME280_temperature;BME280_humidity;BME280_pressure;Samples;Min_cycle;Max_cycle;Signal;HPM_P1;HPM_P2
2024/03/03 00:02:44;;;;;;;83.53;34.83;;;7.20;99.90;;;;;;4311583;28;656894;-76
2024/03/03 00:05:31;;;;;;;80.27;37.57;;;7.20;99.90;;;;;;4333145;28;658559;-77
2024/03/03 00:08:18;;;;;;;81.13;36.50;;;7.10;99.90;;;;;;4309982;28;657623;-77
2024/03/03 00:11:06;;;;;;;81.25;37.67;;;7.10;99.90;;;;;;4385659;28;657666;-77
2024/03/03 00:13:54;;;;;;;76.13;36.43;;;7.10;99.90;;;;;;4391954;28;658557;-77
2024/03/03 00:16:42;;;;;;;78.70;35.77;;;7.00;1.00;;;;;;4416606;28;657204;-77
2024/03/03 00:19:29;;;;;;;78.00;36.70;;;7.00;1.00;;;;;;4383531;28;657639;-77
2024/03/03 00:22:16;;;;;;;75.70;34.67;;;7.10;1.00;;;;;;4410298;28;656894;-77
2024/03/03 00:25:04;;;;;;;77.90;35.17;;;7.10;99.90;;;;;;4391260;28;656404;-77
2024/03/03 00:27:51;;;;;;;71.70;35.80;;;7.10;99.90;;;;;;4409813;28;657866;-77
2024/03/03 00:30:40;;;;;;;74.53;35.00;;;7.10;99.90;;;;;;4385140;28;658146;-77
2024/03/03 00:33:28;;;;;;;71.07;33.97;;;7.10;99.90;;;;;;4386455;28;657672;-77
2024/03/03 00:36:15;;;;;;;71.30;35.60;;;7.00;99.90;;;;;;4421155;28;658748;-78
2024/03/03 00:39:04;;;;;;;74.80;34.10;;;7.00;99.90;;;;;;4391890;28;658612;-77
2024/03/03 00:41:51;;;;;;;72.40;34.83;;;7.10;99.90;;;;;;4418591;28;658321;-77
2024/03/03 00:44:38;;;;;;;73.47;34.17;;;7.20;99.90;;;;;;4399589;28;657621;-77
2024/03/03 00:47:27;;;;;;;71.37;35.40;;;7.20;99.90;;;;;;4392187;28;657938;-77
2024/03/03 00:50:14;;;;;;;80.13;39.10;;;7.20;92.40;;;;;;4372806;28;658361;-77
2024/03/03 00:53:01;;;;;;;75.53;35.45;;;7.10;49.20;;;;;;4408439;28;657440;-78
2024/03/03 00:55:50;;;;;;;85.87;38.87;;;7.10;99.90;;;;;;4388087;28;658241;-77
2024/03/03 00:58:38;;;;;;;80.43;33.70;;;7.20;15.60;;;;;;4388805;28;657362;-77
2024/03/03 01:01:25;;;;;;;78.33;34.00;;;7.20;1.00;;;;;;4400020;28;658431;-77
2024/03/03 01:04:14;;;;;;;79.40;34.17;;;7.20;1.00;;;;;;4416481;28;656331;-77
2024/03/03 01:07:01;;;;;;;73.03;32.57;;;7.10;99.90;;;;;;4427910;28;656360;-78
2024/03/03 01:09:49;;;;;;;72.50;34.43;;;7.10;99.90;;;;;;4380330;28;657479;-78
2024/03/03 01:12:36;;;;;;;71.67;35.87;;;7.10;99.90;;;;;;4396655;28;657607;-77
2024/03/03 01:15:23;;;;;;;69.60;32.63;;;7.10;99.90;;;;;;4378041;28;657876;-77
2024/03/03 01:18:10;;;;;;;69.87;32.63;;;7.10;99.90;;;;;;4399802;28;657834;-78
2024/03/03 01:20:59;;;;;;;73.90;31.93;;;7.10;99.90;;;;;;4386495;28;657581;-77
2024/03/03 01:23:47;;;;;;;67.30;31.87;;;7.20;99.90;;;;;;4401008;28;657303;-77
2024/03/03 01:26:35;;;;;;;62.13;30.13;;;7.30;1.00;;;;;;4384156;28;657509;-77
2024/03/03 01:29:23;;;;;;;63.87;31.40;;;7.30;1.00;;;;;;4410552;28;656363;-76
2024/03/03 01:32:10;;;;;;;71.90;33.33;;;7.30;1.00;;;;;;4356003;28;658180;-77
2024/03/03 01:34:58;;;;;;;69.53;29.87;;;7.30;1.00;;;;;;4303119;28;656462;-77
2024/03/03 01:37:47;;;;;;;64.67;30.83;;;7.20;1.00;;;;;;4403462;28;657527;-77
2024/03/03 01:40:34;;;;;;;62.43;27.60;;;7.30;1.00;;;;;;4402574;28;657076;-78
2024/03/03 01:43:21;;;;;;;63.30;29.70;;;7.40;99.90;;;;;;4414133;28;656447;-78
2024/03/03 01:46:09;;;;;;;59.23;27.43;;;7.40;43.00;;;;;;4377705;28;658184;-77
2024/03/03 01:48:57;;;;;;;57.57;29.43;;;7.50;1.00;;;;;;4397966;28;657515;-79
2024/03/03 01:51:44;;;;;;;63.13;30.60;;;7.60;1.00;;;;;;4391474;28;657290;-78
2024/03/03 01:54:34;;;;;;;65.33;29.43;;;7.60;1.00;;;;;;4410782;28;656358;-77
2024/03/03 01:57:21;;;;;;;63.77;31.23;;;7.60;1.00;;;;;;4395215;28;656851;-77
2024/03/03 02:00:10;;;;;;;61.57;30.90;;;7.50;1.00;;;;;;4403941;28;657124;-78
2024/03/03 02:02:57;;;;;;;66.20;30.90;;;7.50;1.00;;;;;;4410786;28;657496;-78
2024/03/03 02:05:45;;;;;;;66.50;31.73;;;7.50;1.00;;;;;;4420579;28;656924;-78
2024/03/03 02:08:33;;;;;;;72.60;30.70;;;7.50;1.00;;;;;;4394473;28;657511;-76
2024/03/03 02:11:21;;;;;;;63.53;29.70;;;7.30;1.00;;;;;;4414858;28;657208;-78
2024/03/03 02:14:09;;;;;;;63.97;30.10;;;7.20;1.00;;;;;;4378301;28;656575;-78
2024/03/03 02:16:56;;;;;;;64.43;30.87;;;7.10;1.00;;;;;;4397119;28;656501;-77
2024/03/03 02:19:43;;;;;;;69.43;32.10;;;7.00;99.90;;;;;;4400109;28;657239;-77
2024/03/03 02:22:32;;;;;;;61.90;29.57;;;7.00;1.00;;;;;;4401158;28;658161;-78
2024/03/03 02:25:20;;;;;;;65.00;31.07;;;7.00;1.00;;;;;;4371414;28;657292;-76
2024/03/03 02:28:07;;;;;;;52.67;28.73;;;6.90;1.00;;;;;;4402900;28;656471;-77
2024/03/03 02:30:54;;;;;;;57.10;28.57;;;6.90;1.00;;;;;;4383772;28;657030;-76
2024/03/03 02:33:42;;;;;;;59.33;29.27;;;6.90;99.90;;;;;;4409346;28;656868;-79
2024/03/03 02:36:29;;;;;;;57.77;29.23;;;6.80;1.00;;;;;;4384245;28;658412;-77
2024/03/03 02:39:18;;;;;;;55.13;27.00;;;6.80;1.00;;;;;;4427316;28;656443;-77
2024/03/03 02:42:05;;;;;;;54.07;26.90;;;6.60;1.00;;;;;;4382147;28;657355;-76
2024/03/03 02:44:53;;;;;;;58.30;27.00;;;6.80;1.00;;;;;;4391611;28;656649;-77
2024/03/03 02:47:40;;;;;;;53.47;28.03;;;6.60;1.00;;;;;;4414965;28;656912;-77
2024/03/03 02:50:27;;;;;;;66.13;28.80;;;6.50;1.00;;;;;;4309603;28;656708;-76
2024/03/03 02:53:15;;;;;;;68.37;29.37;;;6.40;1.00;;;;;;4324619;28;656793;-77
2024/03/03 02:56:08;;;;;;;55.20;28.13;;;6.30;99.90;;;;;;4422219;28;655728;-76
2024/03/03 02:58:55;;;;;;;57.80;27.40;;;6.20;99.90;;;;;;4400531;28;657926;-78
2024/03/03 03:01:42;;;;;;;56.83;26.47;;;6.10;99.90;;;;;;4404088;28;657680;-77
2024/03/03 03:04:30;;;;;;;61.00;28.00;;;6.00;1.00;;;;;;4410107;28;658003;-77
2024/03/03 03:07:17;;;;;;;52.53;26.07;;;5.90;1.00;;;;;;4386215;28;656442;-77
2024/03/03 03:10:05;;;;;;;55.47;27.13;;;5.80;1.00;;;;;;4420597;28;656337;-76
2024/03/03 03:12:54;;;;;;;57.10;26.30;;;5.70;1.00;;;;;;4391285;28;656627;-77
2024/03/03 03:15:41;;;;;;;60.67;27.90;;;5.60;14.40;;;;;;4416929;28;656560;-78
2024/03/03 03:18:29;;;;;;;51.10;25.57;;;5.50;99.90;;;;;;4390763;28;657970;-77
2024/03/03 03:21:16;;;;;;;52.60;25.63;;;5.20;99.90;;;;;;4406154;28;658134;-77
2024/03/03 03:24:03;;;;;;;60.63;28.30;;;5.20;99.90;;;;;;4391367;28;657580;-78
2024/03/03 03:26:50;;;;;;;59.10;28.40;;;5.20;1.00;;;;;;4417863;28;657651;-78
2024/03/03 03:29:39;;;;;;;60.07;28.83;;;5.10;1.00;;;;;;4383796;28;656663;-78
2024/03/03 03:32:26;;;;;;;62.30;28.95;;;5.10;1.00;;;;;;4403158;28;656284;-77
2024/03/03 03:35:13;;;;;;;53.37;27.37;;;5.20;1.00;;;;;;4397156;28;657357;-77
2024/03/03 03:38:01;;;;;;;64.83;31.87;;;5.20;18.30;;;;;;4417225;28;657460;-76
2024/03/03 03:40:48;;;;;;;66.50;32.30;;;5.20;99.90;;;;;;4384501;28;657871;-78
2024/03/03 03:43:35;;;;;;;68.27;32.90;;;5.20;99.90;;;;;;4410814;28;658498;-78
2024/03/03 03:46:24;;;;;;;79.93;34.50;;;5.20;99.90;;;;;;4395228;28;657697;-77
2024/03/03 03:49:11;;;;;;;75.73;34.03;;;5.20;99.90;;;;;;4409743;28;657950;-78
2024/03/03 03:52:03;;;;;;;66.77;32.57;;;5.20;99.90;;;;;;4386585;28;658237;-78
2024/03/03 03:54:50;;;;;;;73.47;34.10;;;5.20;99.90;;;;;;4410922;28;657993;-78
2024/03/03 03:57:40;;;;;;;66.37;30.87;;;5.30;99.90;;;;;;4402833;28;657556;-78
2024/03/03 04:00:27;;;;;;;67.57;31.67;;;5.20;99.90;;;;;;4391784;28;658270;-77
2024/03/03 04:03:16;;;;;;;77.50;33.30;;;5.10;99.90;;;;;;4433873;28;658264;-78
2024/03/03 04:06:04;;;;;;;72.07;34.23;;;5.00;99.90;;;;;;4406153;28;657661;-78
2024/03/03 04:08:51;;;;;;;68.63;31.90;;;4.90;99.90;;;;;;4411512;28;657379;-78
2024/03/03 04:11:39;;;;;;;70.57;31.83;;;4.90;99.90;;;;;;4392504;28;658065;-78
2024/03/03 04:14:26;;;;;;;66.77;28.60;;;4.90;99.90;;;;;;4424549;28;658301;-78
2024/03/03 04:17:13;;;;;;;69.67;32.07;;;4.80;99.90;;;;;;4403024;28;658002;-78
2024/03/03 04:20:04;;;;;;;77.53;34.97;;;4.80;1.00;;;;;;4405532;28;657596;-78
2024/03/03 04:22:51;;;;;;;67.00;31.13;;;4.90;1.00;;;;;;4396980;28;656367;-78
2024/03/03 04:25:38;;;;;;;67.33;31.53;;;4.80;1.00;;;;;;4392955;28;656347;-78
2024/03/03 04:28:26;;;;;;;70.30;31.50;;;4.60;1.00;;;;;;4426527;28;656839;-78
2024/03/03 04:31:13;;;;;;;64.73;29.67;;;4.60;1.00;;;;;;4407282;28;657139;-78
2024/03/03 04:34:00;;;;;;;58.03;27.57;;;4.60;1.00;;;;;;4402274;28;657923;-78
2024/03/03 04:36:49;;;;;;;58.80;27.43;;;4.60;1.00;;;;;;4399056;28;656808;-78
2024/03/03 04:39:36;;;;;;;58.57;25.97;;;4.70;1.00;;;;;;4426624;28;656099;-78
2024/03/03 04:42:23;;;;;;;52.90;25.77;;;4.70;1.00;;;;;;4396501;28;657013;-78
2024/03/03 04:45:11;;;;;;;58.47;27.10;;;4.70;1.00;;;;;;4408401;28;656748;-78
2024/03/03 04:47:58;;;;;;;52.53;26.43;;;4.60;1.00;;;;;;4382030;28;657078;-78
2024/03/03 04:50:45;;;;;;;51.67;24.87;;;4.60;1.00;;;;;;4415339;28;657384;-78
2024/03/03 04:53:34;;;;;;;54.63;25.37;;;4.50;1.00;;;;;;4333185;28;657150;-77
2024/03/03 04:56:21;;;;;;;54.27;25.47;;;4.50;1.00;;;;;;4321266;28;656430;-77
2024/03/03 04:59:08;;;;;;;53.80;24.77;;;4.50;1.00;;;;;;4290851;28;656616;-77
2024/03/03 05:01:56;;;;;;;51.70;24.20;;;4.50;1.00;;;;;;4320919;28;656022;-78
2024/03/03 05:04:43;;;;;;;52.47;24.10;;;4.70;1.00;;;;;;4375152;28;656661;-78
2024/03/03 05:07:30;;;;;;;49.27;23.13;;;4.70;1.00;;;;;;4406429;28;657368;-78
2024/03/03 05:10:19;;;;;;;46.57;23.23;;;4.80;1.00;;;;;;4386505;28;656668;-77
2024/03/03 05:13:06;;;;;;;50.10;23.77;;;4.70;1.00;;;;;;4381491;28;656552;-78
2024/03/03 05:15:53;;;;;;;49.27;23.63;;;4.60;1.00;;;;;;4380925;28;656929;-78
2024/03/03 05:18:42;;;;;;;46.00;24.10;;;4.50;1.00;;;;;;4389993;28;657206;-78
2024/03/03 05:21:29;;;;;;;38.93;20.13;;;4.60;1.00;;;;;;4375200;28;657167;-78
2024/03/03 05:24:16;;;;;;;42.33;22.37;;;4.60;1.00;;;;;;4407921;28;656426;-78
2024/03/03 05:27:05;;;;;;;42.47;21.63;;;4.70;1.00;;;;;;4375651;28;656556;-78
2024/03/03 05:29:53;;;;;;;53.07;21.93;;;4.70;1.00;;;;;;4368723;28;657241;-78
2024/03/03 05:32:40;;;;;;;51.67;23.17;;;4.90;1.00;;;;;;4401310;28;656925;-77
2024/03/03 05:35:27;;;;;;;46.17;22.07;;;4.90;1.00;;;;;;4383489;28;657062;-78
2024/03/03 05:38:15;;;;;;;40.93;21.37;;;4.90;1.00;;;;;;4406171;28;656975;-77
2024/03/03 05:41:02;;;;;;;46.47;22.43;;;5.10;1.00;;;;;;4374699;28;656999;-77
2024/03/03 05:43:51;;;;;;;51.90;23.10;;;5.10;1.00;;;;;;4406471;28;656975;-78
2024/03/03 05:46:38;;;;;;;48.57;23.93;;;5.20;1.00;;;;;;4389348;28;656409;-77
2024/03/03 05:49:25;;;;;;;48.67;22.03;;;5.20;1.00;;;;;;4409321;28;656632;-78
2024/03/03 05:52:13;;;;;;;45.53;21.00;;;5.20;1.00;;;;;;4392186;28;656392;-77
2024/03/03 05:55:00;;;;;;;48.40;21.43;;;5.30;1.00;;;;;;4405109;28;656485;-78
2024/03/03 05:57:48;;;;;;;48.20;23.67;;;5.40;1.00;;;;;;4380734;28;657135;-77
2024/03/03 06:00:37;;;;;;;49.47;22.63;;;5.40;1.00;;;;;;4424582;28;656786;-78
2024/03/03 06:03:25;;;;;;;48.17;24.43;;;5.50;99.90;;;;;;4410579;28;656904;-78
2024/03/03 06:06:12;;;;;;;44.03;22.70;;;5.60;99.90;;;;;;4437610;28;657402;-78
2024/03/03 06:09:00;;;;;;;47.13;21.80;;;5.60;74.70;;;;;;4418671;28;657843;-78
2024/03/03 06:11:47;;;;;;;45.63;22.13;;;5.70;1.00;;;;;;4443562;28;657839;-78
2024/03/03 06:14:34;;;;;;;44.20;21.33;;;5.80;1.00;;;;;;4406180;28;657780;-77
2024/03/03 06:17:23;;;;;;;45.77;21.50;;;5.90;99.90;;;;;;4433804;28;656303;-78
2024/03/03 06:20:11;;;;;;;43.70;20.03;;;5.90;99.90;;;;;;4407451;28;657810;-78
2024/03/03 06:22:58;;;;;;;40.37;20.33;;;6.00;99.90;;;;;;4401231;28;657632;-78
2024/03/03 06:25:46;;;;;;;43.37;19.23;;;6.10;1.00;;;;;;4434164;28;659656;-78
2024/03/03 06:28:33;;;;;;;39.63;18.87;;;6.20;99.90;;;;;;4407904;28;656598;-78
2024/03/03 06:31:20;;;;;;;35.73;18.03;;;6.30;99.90;;;;;;4428094;28;658434;-78
2024/03/03 06:34:09;;;;;;;37.50;18.45;;;6.40;1.00;;;;;;4403917;28;657765;-76
2024/03/03 06:36:56;;;;;;;39.10;17.40;;;6.60;99.90;;;;;;4416529;28;656942;-78
2024/03/03 06:39:44;;;;;;;41.57;18.73;;;6.70;66.50;;;;;;4401782;28;657695;-77
2024/03/03 06:42:33;;;;;;;43.97;18.33;;;6.90;1.00;;;;;;4427453;28;658154;-78
2024/03/03 06:45:20;;;;;;;48.70;20.23;;;7.00;99.90;;;;;;4404852;28;656997;-78
2024/03/03 06:48:08;;;;;;;42.07;17.67;;;7.20;40.50;;;;;;4408479;28;658190;-77
2024/03/03 06:50:57;;;;;;;31.27;15.60;;;7.40;1.00;;;;;;4426135;28;657967;-78
2024/03/03 06:53:44;;;;;;;30.20;14.20;;;7.50;1.00;;;;;;4399694;28;656610;-77
2024/03/03 06:56:31;;;;;;;27.57;12.73;;;7.70;99.90;;;;;;4386716;28;656421;-78
2024/03/03 06:59:18;;;;;;;22.80;11.03;;;8.00;1.00;;;;;;4367964;28;657619;-77
2024/03/03 07:02:05;;;;;;;19.20;10.17;;;8.20;99.90;;;;;;4404932;28;657091;-78
2024/03/03 07:04:53;;;;;;;17.67;9.30;;;8.40;99.90;;;;;;4395693;28;657814;-78
2024/03/03 07:07:41;;;;;;;19.77;9.57;;;8.70;1.00;;;;;;4408292;28;657764;-78
2024/03/03 07:10:29;;;;;;;15.77;9.40;;;8.80;99.90;;;;;;4389356;28;655742;-77
2024/03/03 07:13:17;;;;;;;22.20;9.77;;;9.00;99.90;;;;;;4409868;28;657051;-78
2024/03/03 07:16:04;;;;;;;17.10;9.60;;;9.20;29.50;;;;;;4390475;28;657127;-77
2024/03/03 07:18:52;;;;;;;19.23;9.50;;;9.20;1.00;;;;;;4409306;28;656478;-77
2024/03/03 07:21:39;;;;;;;21.17;9.87;;;9.30;1.00;;;;;;4387718;28;656131;-76
2024/03/03 07:24:28;;;;;;;18.57;9.77;;;9.40;1.00;;;;;;4395352;28;656025;-77
2024/03/03 07:27:15;;;;;;;21.10;10.53;;;9.50;99.90;;;;;;4377915;28;655906;-77
2024/03/03 07:30:03;;;;;;;22.93;11.03;;;9.60;99.90;;;;;;4396431;28;657550;-76
2024/03/03 07:32:50;;;;;;;21.07;10.97;;;9.80;99.90;;;;;;4389197;28;658287;-77
2024/03/03 07:35:37;;;;;;;22.63;10.93;;;9.90;99.90;;;;;;4393498;28;657613;-77
2024/03/03 07:38:25;;;;;;;18.67;10.57;;;10.10;27.40;;;;;;4410812;28;658372;-77
2024/03/03 07:41:14;;;;;;;22.60;11.47;;;10.20;1.00;;;;;;4399894;28;658561;-77
2024/03/03 07:44:03;;;;;;;23.40;11.67;;;10.40;1.00;;;;;;4416045;28;656988;-77
2024/03/03 07:46:51;;;;;;;24.00;11.57;;;10.60;1.00;;;;;;4374464;28;658263;-76
2024/03/03 07:49:38;;;;;;;21.50;10.87;;;10.60;1.00;;;;;;4381664;28;658081;-76
2024/03/03 07:52:25;;;;;;;20.33;10.10;;;10.70;99.90;;;;;;4403251;28;658323;-76
2024/03/03 07:55:13;;;;;;;22.10;10.80;;;10.70;1.00;;;;;;4398698;28;658180;-76
2024/03/03 07:58:01;;;;;;;24.97;12.07;;;10.70;99.90;;;;;;4412630;28;658972;-76
2024/03/03 08:00:48;;;;;;;24.40;11.90;;;10.90;80.10;;;;;;4390632;28;658455;-76
2024/03/03 08:03:36;;;;;;;20.27;11.30;;;11.00;99.90;;;;;;4422410;28;659511;-77
2024/03/03 08:06:23;;;;;;;20.17;10.73;;;11.20;1.00;;;;;;4405130;28;659397;-76
2024/03/03 08:09:11;;;;;;;20.53;10.60;;;11.30;1.00;;;;;;4422401;28;657341;-76
2024/03/03 08:11:58;;;;;;;18.60;10.17;;;11.60;1.00;;;;;;4399679;28;657955;-76
2024/03/03 08:14:47;;;;;;;21.27;10.70;;;11.70;99.90;;;;;;4423275;28;658899;-77
2024/03/03 08:17:34;;;;;;;18.57;9.50;;;12.00;99.90;;;;;;4402041;28;658655;-76
2024/03/03 08:20:21;;;;;;;16.77;9.43;;;12.10;99.90;;;;;;4414497;28;657507;-76
2024/03/03 08:23:08;;;;;;;18.17;9.70;;;12.10;99.90;;;;;;4397928;28;657693;-76
2024/03/03 08:25:55;;;;;;;21.57;10.80;;;12.00;99.90;;;;;;4426477;28;657876;-75
2024/03/03 08:28:43;;;;;;;23.03;10.97;;;11.80;99.90;;;;;;4406890;28;658987;-75
2024/03/03 08:31:35;;;;;;;23.00;11.70;;;11.80;99.90;;;;;;4424962;28;659404;-75
2024/03/03 08:34:23;;;;;;;20.77;11.67;;;11.80;99.90;;;;;;4386458;28;658998;-76
2024/03/03 08:37:10;;;;;;;22.60;12.00;;;11.70;99.90;;;;;;4403204;28;659049;-74
2024/03/03 08:39:58;;;;;;;20.83;11.00;;;11.60;1.00;;;;;;4405753;28;659058;-75
2024/03/03 08:42:45;;;;;;;25.43;11.67;;;11.70;99.90;;;;;;4422875;28;658406;-75
2024/03/03 08:45:32;;;;;;;18.03;10.33;;;11.80;99.90;;;;;;4405540;28;659159;-75
2024/03/03 08:48:21;;;;;;;25.90;11.03;;;11.80;99.90;;;;;;4422789;28;659429;-75
2024/03/03 08:51:09;;;;;;;19.03;10.57;;;11.90;99.90;;;;;;4382776;28;658484;-75
2024/03/03 08:53:57;;;;;;;18.47;10.23;;;12.00;99.90;;;;;;4405527;28;658649;-75
2024/03/03 08:56:44;;;;;;;25.07;11.10;;;12.50;99.90;;;;;;4383236;28;658820;-76
2024/03/03 08:59:31;;;;;;;22.97;11.23;;;12.80;52.90;;;;;;4300457;28;658284;-76
2024/03/03 09:02:19;;;;;;;18.43;10.20;;;13.30;99.90;;;;;;4278421;28;659030;-76
2024/03/03 09:05:09;;;;;;;20.47;10.60;;;13.60;1.00;;;;;;4308341;28;658533;-76
2024/03/03 09:07:56;;;;;;;21.20;10.77;;;13.70;1.00;;;;;;4331643;28;657971;-75
2024/03/03 09:10:43;;;;;;;18.00;8.90;;;13.80;99.90;;;;;;4366846;28;657290;-75
2024/03/03 09:13:30;;;;;;;20.40;9.07;;;13.60;1.00;;;;;;4404796;28;658239;-75
2024/03/03 09:16:18;;;;;;;20.10;9.97;;;13.60;99.90;;;;;;4395056;28;657366;-76
2024/03/03 09:19:05;;;;;;;15.07;8.57;;;13.40;99.90;;;;;;4400279;28;658033;-75
2024/03/03 09:21:54;;;;;;;15.73;8.10;;;13.60;1.00;;;;;;4399085;28;658336;-75
2024/03/03 09:24:41;;;;;;;16.50;8.53;;;13.60;99.90;;;;;;4415929;28;656476;-75
2024/03/03 09:27:28;;;;;;;15.50;9.38;;;14.20;99.90;;;;;;4382007;28;658345;-75
2024/03/03 09:30:16;;;;;;;20.03;9.40;;;14.60;99.90;;;;;;4405526;28;657397;-75
2024/03/03 09:33:03;;;;;;;15.87;8.60;;;14.60;99.90;;;;;;4370227;28;657703;-75
2024/03/03 09:35:52;;;;;;;13.57;7.67;;;14.50;34.10;;;;;;4403213;28;660373;-75
2024/03/03 09:38:40;;;;;;;14.87;7.03;;;14.30;67.50;;;;;;4374295;28;657688;-75
2024/03/03 09:41:27;;;;;;;12.10;6.85;;;13.90;12.50;;;;;;4380186;28;657999;-75
2024/03/03 09:44:16;;;;;;;13.70;6.97;;;13.80;99.90;;;;;;4406326;28;658071;-75
2024/03/03 09:47:04;;;;;;;15.90;7.50;;;13.70;41.30;;;;;;4384087;28;657783;-75
2024/03/03 09:49:51;;;;;;;15.43;6.83;;;13.70;99.90;;;;;;4400796;28;657183;-75
2024/03/03 09:52:41;;;;;;;11.60;7.07;;;14.00;99.90;;;;;;4398768;28;657578;-75
2024/03/03 09:55:29;;;;;;;12.63;6.70;;;14.20;99.90;;;;;;4407242;28;657301;-75
2024/03/03 09:58:17;;;;;;;14.83;6.60;;;14.40;99.90;;;;;;4402868;28;658166;-75
2024/03/03 10:01:04;;;;;;;15.30;6.33;;;14.50;13.10;;;;;;4405440;28;658142;-75
2024/03/03 10:03:51;;;;;;;11.38;6.72;;;14.70;1.00;;;;;;4430412;28;658195;-75
2024/03/03 10:06:39;;;;;;;10.40;6.83;;;14.80;1.00;;;;;;4400304;28;657349;-75
2024/03/03 10:09:26;;;;;;;13.30;8.03;;;14.60;1.00;;;;;;4428076;28;655910;-75
2024/03/03 10:12:15;;;;;;;16.00;8.93;;;15.40;1.00;;;;;;4397936;28;657070;-74
2024/03/03 10:15:04;;;;;;;16.47;8.63;;;16.10;1.00;;;;;;4401053;28;656567;-75
2024/03/03 10:17:51;;;;;;;14.70;8.30;;;16.60;1.00;;;;;;4412448;28;656985;-75
2024/03/03 10:20:40;;;;;;;16.13;8.33;;;17.00;1.00;;;;;;4397211;28;656226;-75
2024/03/03 10:23:28;;;;;;;18.70;7.80;;;16.80;1.00;;;;;;4429843;28;656199;-75
2024/03/03 10:26:16;;;;;;;18.60;7.73;;;16.70;99.90;;;;;;4391188;28;656993;-74
2024/03/03 10:29:07;;;;;;;18.37;8.80;;;16.90;99.90;;;;;;4384740;28;657953;-74
2024/03/03 10:31:54;;;;;;;14.93;7.93;;;16.40;99.90;;;;;;4406581;28;658442;-75
2024/03/03 10:34:43;;;;;;;16.00;8.13;;;15.80;1.00;;;;;;4433169;28;657864;-75
2024/03/03 10:37:30;;;;;;;15.80;7.60;;;16.00;1.00;;;;;;4390395;28;656728;-74
2024/03/03 10:40:17;;;;;;;15.97;7.73;;;15.90;1.00;;;;;;4390448;28;656470;-74
2024/03/03 10:43:05;;;;;;;17.27;8.50;;;15.60;1.00;;;;;;4431830;28;657555;-75
2024/03/03 10:45:54;;;;;;;12.80;7.27;;;15.50;1.00;;;;;;4394070;28;656675;-74
2024/03/03 10:48:41;;;;;;;14.23;8.03;;;15.20;1.00;;;;;;4405292;28;657144;-75
2024/03/03 10:51:28;;;;;;;14.43;7.17;;;15.10;1.00;;;;;;4402219;28;656891;-75
2024/03/03 10:54:17;;;;;;;13.30;7.30;;;15.20;1.00;;;;;;4411514;28;657296;-74
2024/03/03 10:57:05;;;;;;;16.83;7.07;;;15.50;1.00;;;;;;4385022;28;657489;-75
2024/03/03 10:59:53;;;;;;;13.43;6.83;;;16.10;1.00;;;;;;4408310;28;657067;-75
2024/03/03 11:02:42;;;;;;;9.03;5.20;;;17.40;1.00;;;;;;4416387;28;657378;-75
2024/03/03 11:05:30;;;;;;;9.95;4.78;;;18.40;99.90;;;;;;4392037;28;656829;-75
2024/03/03 11:08:17;;;;;;;7.33;4.50;;;18.50;99.90;;;;;;4404273;28;656559;-74
2024/03/03 11:11:05;;;;;;;9.07;5.00;;;18.00;99.90;;;;;;4398002;28;657210;-74
2024/03/03 11:13:57;;;;;;;11.00;5.70;;;17.40;99.90;;;;;;4405908;28;657283;-74
2024/03/03 11:16:46;;;;;;;9.13;4.60;;;17.10;99.90;;;;;;4398766;28;659308;-74
2024/03/03 11:19:38;;;;;;;11.43;5.47;;;16.80;99.90;;;;;;4388090;28;657298;-74
2024/03/03 11:22:26;;;;;;;10.63;5.63;;;16.80;99.90;;;;;;4380887;28;658105;-74
2024/03/03 11:25:16;;;;;;;6.63;4.10;;;17.70;99.90;;;;;;4400374;28;657432;-74
2024/03/03 11:28:03;;;;;;;6.30;3.57;;;19.10;99.90;;;;;;4408453;28;657438;-74
2024/03/03 11:30:51;;;;;;;7.33;3.90;;;19.30;99.90;;;;;;4427936;28;658628;-74
2024/03/03 11:33:38;;;;;;;6.47;4.03;;;19.50;99.90;;;;;;4379958;28;656494;-74
2024/03/03 11:36:27;;;;;;;7.43;4.13;;;19.10;99.90;;;;;;4416930;28;656339;-74
2024/03/03 11:39:15;;;;;;;7.87;3.73;;;18.10;99.90;;;;;;4384407;28;657312;-74
2024/03/03 11:42:18;;;;;;;7.40;4.63;;;17.40;99.90;;;;;;4403775;28;656939;-74
2024/03/03 11:45:06;;;;;;;8.43;4.50;;;16.60;99.90;;;;;;4383474;28;657313;-74
2024/03/03 11:47:54;;;;;;;8.98;4.53;;;17.20;99.90;;;;;;4391415;28;658717;-74
2024/03/03 11:50:41;;;;;;;7.53;4.53;;;18.00;99.90;;;;;;4424177;28;656927;-74
2024/03/03 11:53:29;;;;;;;7.63;4.50;;;19.00;99.90;;;;;;4396673;28;656560;-74
2024/03/03 11:56:18;;;;;;;8.63;4.30;;;18.50;99.90;;;;;;4415201;28;656537;-74
2024/03/03 11:59:06;;;;;;;8.00;4.00;;;18.10;99.90;;;;;;4389440;28;657526;-74
2024/03/03 12:01:53;;;;;;;5.87;3.43;;;18.00;99.90;;;;;;4381905;28;657508;-74
2024/03/03 12:04:42;;;;;;;7.53;4.50;;;18.60;99.90;;;;;;4414292;28;656599;-73
2024/03/03 12:07:30;;;;;;;9.43;4.40;;;18.00;99.90;;;;;;4396544;28;656911;-74
2024/03/03 12:10:20;;;;;;;10.70;3.67;;;19.20;99.90;;;;;;4418416;28;656794;-74
2024/03/03 12:13:08;;;;;;;4.40;3.10;;;19.30;99.90;;;;;;4400773;28;657337;-74
2024/03/03 12:15:55;;;;;;;7.47;3.67;;;20.10;99.90;;;;;;4395937;28;657196;-74
2024/03/03 12:18:42;;;;;;;6.17;3.53;;;19.40;99.90;;;;;;4422300;28;657110;-74
2024/03/03 12:21:30;;;;;;;11.30;4.03;;;19.30;99.90;;;;;;4417947;28;656803;-73
2024/03/03 12:24:17;;;;;;;6.77;3.60;;;19.70;99.90;;;;;;4402417;28;657789;-74
2024/03/03 12:27:06;;;;;;;6.27;3.50;;;20.10;99.90;;;;;;4429004;28;657222;-74
2024/03/03 12:30:00;;;;;;;6.50;3.73;;;20.00;99.90;;;;;;4390941;28;656700;-74
2024/03/03 12:32:48;;;;;;;6.77;3.63;;;20.40;99.90;;;;;;4389886;28;656938;-74
2024/03/03 12:35:35;;;;;;;5.20;3.30;;;20.10;99.90;;;;;;4410322;28;657082;-73
2024/03/03 12:38:22;;;;;;;8.43;3.57;;;19.20;99.90;;;;;;4415577;28;656918;-73
2024/03/03 12:41:10;;;;;;;5.57;3.63;;;18.60;99.90;;;;;;4421834;28;657307;-73
2024/03/03 12:43:59;;;;;;;7.97;3.97;;;17.90;99.90;;;;;;4428288;28;656479;-74
2024/03/03 12:46:50;;;;;;;12.00;3.50;;;18.60;99.90;;;;;;4424317;28;656543;-74
2024/03/03 12:49:37;;;;;;;6.60;3.57;;;19.00;99.90;;;;;;4383649;28;657877;-74
2024/03/03 12:52:25;;;;;;;4.93;3.20;;;19.00;99.90;;;;;;4423987;28;657605;-74
2024/03/03 12:55:12;;;;;;;6.07;3.40;;;19.50;99.90;;;;;;4420974;28;656480;-74
2024/03/03 12:57:59;;;;;;;6.07;2.83;;;19.90;99.90;;;;;;4393486;28;657805;-74
2024/03/03 13:00:49;;;;;;;4.97;2.83;;;21.00;99.90;;;;;;4411523;28;656617;-73
2024/03/03 13:03:39;;;;;;;5.03;3.20;;;21.60;99.90;;;;;;4400759;28;656840;-74
2024/03/03 13:06:26;;;;;;;7.73;3.20;;;22.00;99.90;;;;;;4398767;28;657021;-73
2024/03/03 13:09:13;;;;;;;5.23;3.60;;;22.20;99.90;;;;;;4404658;28;656479;-73
2024/03/03 13:12:01;;;;;;;5.83;3.80;;;21.80;99.90;;;;;;4416272;28;657052;-73
2024/03/03 13:14:52;;;;;;;4.90;3.33;;;20.70;99.90;;;;;;4385008;28;656757;-73
2024/03/03 13:17:41;;;;;;;7.57;3.60;;;20.10;99.90;;;;;;4396633;28;656924;-73
2024/03/03 13:20:28;;;;;;;6.30;3.53;;;18.90;99.90;;;;;;4392383;28;656788;-73
2024/03/03 13:23:17;;;;;;;8.80;5.27;;;18.00;99.90;;;;;;4413577;28;657300;-73
2024/03/03 13:26:05;;;;;;;10.07;5.17;;;18.70;99.90;;;;;;4386234;28;656983;-74
2024/03/03 13:28:52;;;;;;;9.60;5.30;;;20.20;99.90;;;;;;4408572;28;657417;-74
2024/03/03 13:31:39;;;;;;;11.53;6.23;;;20.80;99.90;;;;;;4388530;28;657982;-73
2024/03/03 13:34:28;;;;;;;10.60;6.20;;;21.10;99.90;;;;;;4419516;28;657764;-73
2024/03/03 13:37:15;;;;;;;13.63;5.80;;;20.30;99.90;;;;;;4391582;28;659127;-73
2024/03/03 13:40:03;;;;;;;10.53;5.40;;;18.90;99.90;;;;;;4400223;28;658019;-73
2024/03/03 13:42:50;;;;;;;11.07;5.33;;;17.80;99.90;;;;;;4423776;28;659210;-74
2024/03/03 13:45:37;;;;;;;9.20;5.10;;;19.10;99.90;;;;;;4399189;28;657967;-74
2024/03/03 13:48:25;;;;;;;13.93;5.77;;;20.40;99.90;;;;;;4417784;28;657843;-74
2024/03/03 13:51:14;;;;;;;11.40;5.83;;;21.60;99.90;;;;;;4403755;28;657657;-74
2024/03/03 13:54:01;;;;;;;12.23;5.83;;;22.20;99.90;;;;;;4416092;28;657270;-73
2024/03/03 13:56:49;;;;;;;12.27;6.90;;;21.30;99.90;;;;;;4403510;28;657858;-73
2024/03/03 13:59:36;;;;;;;15.00;7.10;;;19.80;99.90;;;;;;4399678;28;657979;-73
2024/03/03 14:02:23;;;;;;;14.13;7.33;;;18.80;99.90;;;;;;4389111;28;658112;-73
2024/03/03 14:05:11;;;;;;;11.47;6.70;;;17.90;99.90;;;;;;4403819;28;658484;-73
2024/03/03 14:08:00;;;;;;;10.90;6.73;;;17.20;99.90;;;;;;4399880;28;657864;-73
2024/03/03 14:10:47;;;;;;;12.13;6.70;;;16.70;99.90;;;;;;4420284;28;657420;-73
2024/03/03 14:13:35;;;;;;;13.27;7.53;;;16.40;99.90;;;;;;4408141;28;658842;-73
2024/03/03 14:16:22;;;;;;;15.97;7.83;;;16.00;99.90;;;;;;4398450;28;657562;-73